Time;durP1;ratioP1;P1;durP2;ratioP2;P2;SDS_P1;SDS_P2;PMS_P1;PMS_P2;Temp;Humidity;BMP_temperature;BMP_pressure;BME280_temperature;BME280_humidity;BME280_pressure;Samples;Min_cycle;Max_cycle;Signal;HPM_P1;HPM_P2
2022/01/17 00:00:31;;;;;;;;;;;4.80;99.90;;;;;;5057272;28;19954;-80
2022/01/17 00:02:59;;;;;;;;;;;4.80;99.90;;;;;;5063793;28;19955;-80
2022/01/17 00:05:26;;;;;;;;;;;4.80;99.90;;;;;;5061341;28;19932;-80
2022/01/17 00:07:53;;;;;;;;;;;4.80;99.90;;;;;;5063041;28;19961;-80
2022/01/17 00:10:21;;;;;;;;;;;4.80;99.90;;;;;;5075775;28;20358;-80
2022/01/17 00:12:50;;;;;;;;;;;4.80;99.90;;;;;;5064538;28;19995;-80
2022/01/17 00:15:22;;;;;;;;;;;4.80;99.90;;;;;;5056947;28;19976;-80
2022/01/17 00:17:52;;;;;;;;;;;4.80;99.90;;;;;;5071892;28;19925;-80
2022/01/17 00:20:25;;;;;;;;;;;4.80;99.90;;;;;;5073142;28;19964;-76
2022/01/17 00:22:52;;;;;;;;;;;4.80;99.90;;;;;;5076858;28;19909;-77
2022/01/17 00:25:20;;;;;;;;;;;4.90;99.90;;;;;;5073731;28;19984;-80
2022/01/17 00:27:48;;;;;;;;;;;4.90;99.90;;;;;;5076262;28;19932;-81
2022/01/17 00:30:15;;;;;;;;;;;4.90;99.90;;;;;;5075342;28;19925;-80
2022/01/17 00:32:41;;;;;;;;;;;4.90;99.90;;;;;;5062723;28;19925;-80
2022/01/17 00:35:09;;;;;;;;;;;4.90;99.90;;;;;;5075030;28;19951;-77
2022/01/17 00:37:35;;;;;;;;;;;4.90;99.90;;;;;;5054781;28;19979;-80
2022/01/17 00:40:02;;;;;;;;;;;4.90;99.90;;;;;;5065378;28;19913;-81
2022/01/17 00:42:30;;;;;;;;;;;4.90;99.90;;;;;;5063725;28;20371;-81
2022/01/17 00:44:57;;;;;;;;;;;4.90;99.90;;;;;;5076113;28;19976;-80
2022/01/17 00:47:23;;;;;;;;;;;4.90;99.90;;;;;;5087153;28;19924;-79
2022/01/17 00:49:50;;;;;;;;;;;4.90;99.90;;;;;;5083676;28;19951;-80
2022/01/17 00:52:16;;;;;;;;;;;4.90;99.90;;;;;;5078227;28;19976;-76
2022/01/17 00:54:43;;;;;;;;;;;5.00;99.90;;;;;;5067988;28;19993;-80
2022/01/17 00:57:10;;;;;;;;;;;5.00;99.90;;;;;;5069650;28;19984;-80
2022/01/17 00:59:38;;;;;;;;;;;5.00;99.90;;;;;;5065533;28;20306;-79
2022/01/17 01:02:05;;;;;;;;;;;5.00;99.90;;;;;;5073799;28;19960;-76
2022/01/17 01:04:32;;;;;;;;;;;5.00;99.90;;;;;;5068667;28;19960;-80
2022/01/17 01:06:58;;;;;;;;;;;5.00;99.90;;;;;;5057916;28;19956;-81
2022/01/17 01:09:29;;;;;;;;;;;5.00;99.90;;;;;;5066348;28;19932;-81
2022/01/17 01:11:56;;;;;;;;;;;4.90;99.90;;;;;;5080159;28;19936;-77
2022/01/17 01:14:22;;;;;;;;;;;4.90;99.90;;;;;;5077279;28;19973;-75
2022/01/17 01:16:53;;;;;;;;;;;5.00;99.90;;;;;;5077403;28;19936;-75
2022/01/17 01:19:27;;;;;;;;;;;4.90;99.90;;;;;;5081728;28;19931;-77
2022/01/17 01:27:39;;;;;;;;;;;5.00;99.90;;;;;;5075621;28;19921;-80
2022/01/17 01:27:53;;;;;;;;;;;5.00;99.90;;;;;;5070000;28;19932;-75
2022/01/17 01:30:22;;;;;;;;;;;5.00;99.90;;;;;;5077164;28;19931;-75
2022/01/17 01:32:54;;;;;;;;;;;5.00;99.90;;;;;;5071506;28;20376;-80
2022/01/17 01:35:23;;;;;;;;;;;5.00;99.90;;;;;;5075646;28;19923;-80
2022/01/17 01:37:50;;;;;;;;;;;5.00;99.90;;;;;;5080227;28;19912;-80
2022/01/17 01:40:17;;;;;;;;;;;5.00;99.90;;;;;;5080305;28;19916;-80
2022/01/17 01:42:44;;;;;;;;;;;5.00;99.90;;;;;;5074801;28;19924;-79
2022/01/17 01:45:12;;;;;;;;;;;5.00;99.90;;;;;;5065868;28;19909;-77
2022/01/17 01:47:40;;;;;;;;;;;5.00;99.90;;;;;;5075942;28;19915;-75
2022/01/17 01:50:10;;;;;;;;;;;5.00;99.90;;;;;;5079215;28;19963;-80
2022/01/17 01:52:37;;;;;;;;;;;5.00;99.90;;;;;;5070323;28;19932;-81
2022/01/17 01:55:04;;;;;;;;;;;5.00;99.90;;;;;;5077664;28;19928;-81
2022/01/17 01:57:31;;;;;;;;;;;5.00;99.90;;;;;;5078242;28;19925;-80
2022/01/17 01:59:58;;;;;;;;;;;5.00;99.90;;;;;;5079796;28;19950;-81
2022/01/17 02:02:24;;;;;;;;;;;5.00;99.90;;;;;;5078230;28;19971;-81
2022/01/17 02:04:51;;;;;;;;;;;5.00;99.90;;;;;;5077907;28;19952;-80
2022/01/17 02:07:20;;;;;;;;;;;5.00;99.90;;;;;;5084105;28;19952;-80
2022/01/17 02:09:46;;;;;;;;;;;5.00;99.90;;;;;;5073033;28;19979;-80
2022/01/17 02:12:20;;;;;;;;;;;5.00;99.90;;;;;;5065228;28;19953;-80
2022/01/17 02:14:47;;;;;;;;;;;5.10;99.90;;;;;;5067601;28;19932;-80
2022/01/17 02:17:13;;;;;;;;;;;5.10;99.90;;;;;;5061887;28;19924;-80
2022/01/17 02:19:45;;;;;;;;;;;5.10;99.90;;;;;;5073539;28;19963;-80
2022/01/17 02:22:13;;;;;;;;;;;5.00;99.90;;;;;;5066627;28;19929;-80
2022/01/17 02:24:40;;;;;;;;;;;5.10;99.90;;;;;;5063029;28;19980;-80
2022/01/17 02:27:06;;;;;;;;;;;5.10;99.90;;;;;;5071661;28;19996;-80
2022/01/17 02:29:33;;;;;;;;;;;5.10;99.90;;;;;;5056208;28;19927;-79
2022/01/17 02:32:00;;;;;;;;;;;5.10;99.90;;;;;;5066560;28;19925;-79
2022/01/17 02:34:26;;;;;;;;;;;5.10;99.90;;;;;;5068410;28;19931;-79
2022/01/17 02:36:54;;;;;;;;;;;5.10;99.90;;;;;;5069187;28;19964;-79
2022/01/17 02:39:22;;;;;;;;;;;5.10;99.90;;;;;;5066450;28;19948;-80
2022/01/17 02:41:49;;;;;;;;;;;5.10;99.90;;;;;;5070291;28;19924;-79
2022/01/17 02:44:17;;;;;;;;;;;5.20;99.90;;;;;;5069653;28;19925;-80
2022/01/17 02:46:44;;;;;;;;;;;5.10;99.90;;;;;;5069003;28;19925;-79
2022/01/17 02:49:10;;;;;;;;;;;5.10;99.90;;;;;;5067709;28;19971;-79
2022/01/17 02:51:37;;;;;;;;;;;5.10;99.90;;;;;;5061111;28;19982;-79
2022/01/17 02:54:04;;;;;;;;;;;5.10;99.90;;;;;;5065720;28;19931;-79
2022/01/17 02:56:32;;;;;;;;;;;5.10;99.90;;;;;;5079602;28;19985;-79
2022/01/17 02:58:58;;;;;;;;;;;5.10;99.90;;;;;;5060717;28;20295;-77
2022/01/17 03:01:26;;;;;;;;;;;5.20;99.90;;;;;;5069517;28;19931;-79
2022/01/17 03:03:53;;;;;;;;;;;5.20;99.90;;;;;;5069058;28;19924;-80
2022/01/17 03:06:20;;;;;;;;;;;5.10;99.90;;;;;;5070894;28;19963;-80
2022/01/17 03:08:46;;;;;;;;;;;5.20;99.90;;;;;;5072518;28;19988;-81
2022/01/17 03:11:14;;;;;;;;;;;5.20;99.90;;;;;;5070238;28;19970;-80
2022/01/17 03:13:42;;;;;;;;;;;5.20;99.90;;;;;;5062834;28;19909;-80
2022/01/17 03:16:11;;;;;;;;;;;5.20;99.90;;;;;;5088987;28;19983;-80
2022/01/17 03:18:39;;;;;;;;;;;5.20;99.90;;;;;;5069259;28;19925;-80
2022/01/17 03:21:06;;;;;;;;;;;5.20;99.90;;;;;;5067473;28;19924;-80
2022/01/17 03:23:33;;;;;;;;;;;5.20;99.90;;;;;;5070851;28;20023;-80
2022/01/17 03:26:00;;;;;;;;;;;5.20;99.90;;;;;;5070398;28;19928;-80
2022/01/17 03:28:27;;;;;;;;;;;5.20;99.90;;;;;;5074495;28;19988;-80
2022/01/17 03:30:55;;;;;;;;;;;5.20;99.90;;;;;;5073770;28;20000;-80
2022/01/17 03:33:21;;;;;;;;;;;5.20;99.90;;;;;;5063730;28;19997;-80
2022/01/17 03:35:49;;;;;;;;;;;5.20;99.90;;;;;;5065938;28;19963;-80
2022/01/17 03:38:16;;;;;;;;;;;5.20;99.90;;;;;;5078973;28;19956;-76
2022/01/17 03:40:46;;;;;;;;;;;5.20;99.90;;;;;;5079489;28;19980;-80
2022/01/17 03:43:12;;;;;;;;;;;5.20;99.90;;;;;;5077456;28;19931;-81
2022/01/17 03:45:39;;;;;;;;;;;5.20;99.90;;;;;;5077935;28;19952;-78
2022/01/17 03:48:07;;;;;;;;;;;5.20;99.90;;;;;;5069810;28;19936;-80
2022/01/17 03:50:34;;;;;;;;;;;5.20;99.90;;;;;;5078168;28;19972;-80
2022/01/17 03:53:00;;;;;;;;;;;5.20;99.90;;;;;;5077885;28;19947;-81
2022/01/17 03:55:32;;;;;;;;;;;5.20;99.90;;;;;;5077164;28;20418;-77
2022/01/17 03:57:59;;;;;;;;;;;5.20;99.90;;;;;;5078449;28;19925;-80
2022/01/17 04:00:26;;;;;;;;;;;5.20;99.90;;;;;;5077502;28;19924;-81
2022/01/17 04:02:55;;;;;;;;;;;5.10;99.90;;;;;;5064962;28;19909;-81
2022/01/17 04:05:23;;;;;;;;;;;5.10;99.90;;;;;;5071933;28;19976;-80
2022/01/17 04:07:49;;;;;;;;;;;5.10;99.90;;;;;;5081887;28;19936;-81
2022/01/17 04:10:16;;;;;;;;;;;5.10;99.90;;;;;;5077171;28;19976;-81
2022/01/17 04:12:43;;;;;;;;;;;5.10;99.90;;;;;;5077912;28;19960;-82
2022/01/17 04:15:11;;;;;;;;;;;5.00;99.90;;;;;;5096299;28;19988;-81
2022/01/17 04:17:40;;;;;;;;;;;5.00;99.90;;;;;;5079316;28;19936;-81
2022/01/17 04:20:09;;;;;;;;;;;4.90;99.90;;;;;;5060139;28;19924;-77
2022/01/17 04:22:42;;;;;;;;;;;4.90;99.90;;;;;;5066539;28;19909;-81
2022/01/17 04:25:09;;;;;;;;;;;4.90;99.90;;;;;;5077734;28;19916;-81
2022/01/17 04:27:36;;;;;;;;;;;4.90;99.90;;;;;;5075154;28;20008;-75
2022/01/17 04:30:03;;;;;;;;;;;4.90;99.90;;;;;;5078929;28;19972;-70
2022/01/17 04:32:30;;;;;;;;;;;4.80;99.90;;;;;;5092001;28;19939;-71
2022/01/17 04:34:57;;;;;;;;;;;4.70;99.90;;;;;;5082423;28;19948;-77
2022/01/17 04:37:23;;;;;;;;;;;4.70;99.90;;;;;;5075284;28;19948;-82
2022/01/17 04:39:51;;;;;;;;;;;4.70;99.90;;;;;;5074568;28;19934;-82
2022/01/17 04:42:25;;;;;;;;;;;4.60;99.90;;;;;;5075791;28;19924;-82
2022/01/17 04:50:03;;;;;;;;;;;4.70;99.90;;;;;;5194587;22;19915;-78
2022/01/17 04:52:30;;;;;;;;;;;4.60;99.90;;;;;;5089291;28;19944;-73
2022/01/17 04:55:01;;;;;;;;;;;4.50;99.90;;;;;;5082779;28;19931;-72
2022/01/17 04:57:28;;;;;;;;;;;4.60;99.90;;;;;;5095709;28;19908;-74
2022/01/17 04:59:55;;;;;;;;;;;4.60;99.90;;;;;;5085853;28;19940;-79
2022/01/17 05:02:22;;;;;;;;;;;4.60;99.90;;;;;;5086480;28;19943;-80
2022/01/17 05:04:48;;;;;;;;;;;4.60;99.90;;;;;;5082444;28;19943;-71
2022/01/17 05:07:15;;;;;;;;;;;4.50;99.90;;;;;;5102635;28;19940;-70
2022/01/17 05:12:29;;;;;;;;;;;4.50;99.90;;;;;;5307563;22;19908;-69
2022/01/17 05:14:57;;;;;;;;;;;4.40;99.90;;;;;;5085389;28;19908;-68
2022/01/17 05:19:59;;;;;;;;;;;4.30;99.90;;;;;;5542692;22;19930;-75
2022/01/17 05:22:29;;;;;;;;;;;4.30;99.90;;;;;;5102465;28;19931;-67
2022/01/17 05:27:34;;;;;;;;;;;4.20;99.90;;;;;;5552424;22;19908;-74
2022/01/17 05:30:01;;;;;;;;;;;4.20;99.90;;;;;;5102088;28;19920;-77
2022/01/17 05:34:59;;;;;;;;;;;4.30;99.90;;;;;;5549319;22;19932;-71
2022/01/17 05:37:25;;;;;;;;;;;4.40;99.90;;;;;;5096857;28;19908;-72
2022/01/17 05:39:52;;;;;;;;;;;4.50;99.90;;;;;;5096986;28;19943;-77
2022/01/17 05:42:20;;;;;;;;;;;4.60;99.90;;;;;;5402380;22;20344;-73
2022/01/17 05:47:23;;;;;;;;;;;4.70;99.90;;;;;;5784352;22;19909;-74
2022/01/17 05:55:02;;;;;;;;;;;4.90;99.90;;;;;;5556432;22;19909;-80
2022/01/17 05:57:31;;;;;;;;;;;5.10;99.90;;;;;;5100867;28;19908;-73
2022/01/17 06:00:00;;;;;;;;;;;4.90;99.90;;;;;;5081872;28;19916;-70
2022/01/17 06:02:28;;;;;;;;;;;4.90;99.90;;;;;;5062067;28;19910;-71
2022/01/17 06:04:55;;;;;;;;;;;5.00;99.90;;;;;;5061105;28;19909;-73
2022/01/17 06:12:41;;;;;;;;;;;5.10;99.90;;;;;;5724655;22;19932;-78
2022/01/17 06:15:08;;;;;;;;;;;5.10;99.90;;;;;;5101339;28;19913;-66
2022/01/17 06:17:36;;;;;;;;;;;5.10;99.90;;;;;;5099714;28;19913;-73
2022/01/17 06:31:17;;;;;;;;;;;5.30;99.90;;;;;;6183983;22;20037;-75
2022/01/17 06:33:46;;;;;;;;;;;5.30;99.90;;;;;;5098355;28;19912;-69
2022/01/17 06:38:53;;;;;;;;;;;5.30;99.90;;;;;;5186121;22;19916;-71
2022/01/17 06:41:20;;;;;;;;;;;5.30;99.90;;;;;;5073034;28;19936;-80
2022/01/17 06:43:47;;;;;;;;;;;5.30;99.90;;;;;;5080575;28;19980;-70
2022/01/17 06:46:14;;;;;;;;;;;5.40;99.90;;;;;;5080226;28;19988;-71
2022/01/17 06:54:21;;;;;;;;;;;5.40;99.90;;;;;;5576073;22;19909;-66
2022/01/17 06:56:48;;;;;;;;;;;5.50;99.90;;;;;;5100211;28;19947;-70
2022/01/17 07:01:51;;;;;;;;;;;5.40;99.90;;;;;;6078382;22;20995;-74
2022/01/17 07:09:39;;;;;;;;;;;5.50;99.90;;;;;;6014711;22;19920;-68
2022/01/17 07:12:06;;;;;;;;;;;5.50;99.90;;;;;;5079298;28;19941;-71
2022/01/17 07:14:33;;;;;;;;;;;5.60;99.90;;;;;;5079041;28;19942;-77
2022/01/17 07:17:00;;;;;;;;;;;5.60;99.90;;;;;;5078622;28;19972;-79
2022/01/17 07:22:02;;;;;;;;;;;5.70;99.90;;;;;;5701172;22;19909;-80
2022/01/17 07:27:10;;;;;;;;;;;5.70;99.90;;;;;;5301728;22;19920;-81
2022/01/17 07:29:38;;;;;;;;;;;5.80;99.90;;;;;;5073798;28;19928;-81
2022/01/17 07:32:06;;;;;;;;;;;5.80;99.90;;;;;;5075366;28;19932;-78
2022/01/17 07:42:59;;;;;;;;;;;5.80;99.90;;;;;;5753889;22;19908;-69
2022/01/17 07:45:27;;;;;;;;;;;5.80;99.90;;;;;;5210295;22;20040;-72
2022/01/17 07:50:22;;;;;;;;;;;5.90;99.90;;;;;;5456363;22;19931;-74
2022/01/17 07:52:50;;;;;;;;;;;5.90;99.90;;;;;;5087332;28;19908;-67
2022/01/17 07:57:52;;;;;;;;;;;5.90;99.90;;;;;;5137579;22;19929;-78
2022/01/17 08:00:25;;;;;;;;;;;5.90;99.90;;;;;;5098629;28;19980;-76
2022/01/17 08:02:53;;;;;;;;;;;5.90;99.90;;;;;;5098910;28;19909;-72
2022/01/17 08:05:20;;;;;;;;;;;6.10;99.90;;;;;;5080970;28;20018;-69
2022/01/17 08:07:47;;;;;;;;;;;5.90;99.90;;;;;;5372547;23;19952;-72
2022/01/17 08:10:18;;;;;;;;;;;5.90;99.90;;;;;;5090051;28;19944;-76
2022/01/17 08:12:46;;;;;;;;;;;5.90;99.90;;;;;;5077481;28;19931;-75
2022/01/17 08:20:30;;;;;;;;;;;6.00;99.90;;;;;;5063995;28;19936;-74
2022/01/17 08:30:33;;;;;;;;;;;5.90;99.90;;;;;;6123318;22;20311;-76
2022/01/17 08:33:01;;;;;;;;;;;5.90;99.90;;;;;;5082549;28;19908;-71
2022/01/17 08:35:28;;;;;;;;;;;5.90;99.90;;;;;;5691645;22;19929;-75
2022/01/17 08:37:56;;;;;;;;;;;6.00;99.90;;;;;;5073672;28;19972;-78
2022/01/17 08:42:58;;;;;;;;;;;6.00;99.90;;;;;;5926169;22;19908;-75
2022/01/17 08:45:26;;;;;;;;;;;6.00;99.90;;;;;;5299392;22;19946;-73
2022/01/17 08:58:46;;;;;;;;;;;7.40;99.90;;;;;;5410738;22;19942;-69
2022/01/17 09:13:04;;;;;;;;;;;7.70;99.90;;;;;;5681331;22;19916;-69
2022/01/17 09:15:32;;;;;;;;;;;8.30;99.90;;;;;;5122922;28;19930;-71
2022/01/17 09:17:59;;;;;;;;;;;8.20;99.90;;;;;;5096800;28;19931;-69
2022/01/17 09:30:41;;;;;;;;;;;8.00;99.90;;;;;;5176446;22;19907;-68
2022/01/17 09:35:53;;;;;;;;;;;8.80;99.90;;;;;;5814941;22;19908;-70
2022/01/17 09:38:21;;;;;;;;;;;8.20;99.90;;;;;;5112317;28;19943;-77
2022/01/17 09:40:48;;;;;;;;;;;8.00;99.90;;;;;;5133065;22;19920;-79
2022/01/17 09:43:15;;;;;;;;;;;7.60;99.90;;;;;;5099819;28;19908;-79
2022/01/17 09:53:28;;;;;;;;;;;7.10;99.90;;;;;;5583938;22;19908;-70
2022/01/17 09:55:58;;;;;;;;;;;7.00;99.90;;;;;;5105668;28;19951;-70
2022/01/17 09:58:25;;;;;;;;;;;6.80;99.90;;;;;;5100698;28;19925;-77
2022/01/17 10:00:54;;;;;;;;;;;6.80;99.90;;;;;;5084802;28;19916;-73
2022/01/17 10:05:48;;;;;;;;;;;6.60;99.90;;;;;;5140903;22;20354;-72
2022/01/17 10:08:17;;;;;;;;;;;6.50;99.90;;;;;;5093920;28;19925;-75
2022/01/17 10:10:50;;;;;;;;;;;6.50;99.90;;;;;;5080492;28;19940;-76
2022/01/17 10:13:18;;;;;;;;;;;6.50;99.90;;;;;;5080417;28;19916;-71
2022/01/17 10:21:03;;;;;;;;;;;6.60;99.90;;;;;;5715149;22;19933;-72
2022/01/17 10:26:07;;;;;;;;;;;6.80;99.90;;;;;;6123408;22;20608;-78
2022/01/17 10:34:52;;;;;;;;;;;6.70;99.90;;;;;;5120472;28;19924;-78
2022/01/17 10:36:57;;;;;;;;;;;6.50;99.90;;;;;;5107129;28;19915;-78
2022/01/17 10:39:24;;;;;;;;;;;6.40;99.90;;;;;;5119006;28;19908;-74
2022/01/17 10:49:21;;;;;;;;;;;6.80;99.90;;;;;;5236573;22;19914;-77
2022/01/17 10:51:50;;;;;;;;;;;7.00;99.90;;;;;;5118944;28;19915;-69
2022/01/17 10:54:18;;;;;;;;;;;7.20;99.90;;;;;;5117032;28;19908;-78
2022/01/17 10:56:49;;;;;;;;;;;7.40;99.90;;;;;;5104265;28;19935;-72
2022/01/17 10:59:25;;;;;;;;;;;7.40;99.90;;;;;;5112711;28;19908;-79
2022/01/17 11:01:53;;;;;;;;;;;7.50;99.90;;;;;;5098610;28;19908;-68
2022/01/17 11:04:35;;;;;;;;;;;7.60;99.90;;;;;;5099869;28;19908;-78
2022/01/17 11:07:03;;;;;;;;;;;7.60;99.90;;;;;;5114122;28;19975;-70
2022/01/17 11:09:38;;;;;;;;;;;7.60;99.90;;;;;;5120740;28;19935;-71
2022/01/17 11:12:08;;;;;;;;;;;7.70;99.90;;;;;;5118419;28;19966;-79
2022/01/17 11:14:36;;;;;;;;;;;7.60;99.90;;;;;;5115046;28;19919;-81
2022/01/17 11:17:09;;;;;;;;;;;7.50;99.90;;;;;;5500809;22;19951;-80
2022/01/17 11:27:51;;;;;;;;;;;7.90;99.90;;;;;;5084202;22;20019;-84
2022/01/17 11:30:18;;;;;;;;;;;8.20;99.90;;;;;;5085453;28;19929;-79
2022/01/17 11:32:46;;;;;;;;;;;8.20;99.90;;;;;;5099846;28;19916;-71
2022/01/17 11:35:14;;;;;;;;;;;8.20;99.90;;;;;;5096472;28;19963;-80
2022/01/17 11:37:42;;;;;;;;;;;8.20;99.90;;;;;;5095518;28;19909;-80
2022/01/17 11:40:10;;;;;;;;;;;8.10;99.90;;;;;;5099440;28;19908;-72
2022/01/17 11:42:38;;;;;;;;;;;8.00;99.90;;;;;;5086968;28;19939;-78
2022/01/17 11:45:25;;;;;;;;;;;7.90;99.90;;;;;;5418632;22;19986;-70
2022/01/17 12:03:50;;;;;;;;;;;8.10;99.90;;;;;;5093906;28;19908;-79
2022/01/17 12:06:22;;;;;;;;;;;8.10;99.90;;;;;;5097745;28;19947;-79
2022/01/17 12:09:05;;;;;;;;;;;8.00;99.90;;;;;;5131637;22;19931;-78
2022/01/17 12:11:32;;;;;;;;;;;8.00;99.90;;;;;;5081490;28;19912;-75
2022/01/17 12:14:20;;;;;;;;;;;8.10;99.90;;;;;;5097435;28;19908;-74
2022/01/17 12:16:47;;;;;;;;;;;8.10;99.90;;;;;;5098552;28;19923;-80
2022/01/17 12:19:15;;;;;;;;;;;8.20;99.90;;;;;;5167909;22;19915;-78
2022/01/17 12:21:44;;;;;;;;;;;8.20;99.90;;;;;;5082789;28;19916;-78
2022/01/17 12:24:41;;;;;;;;;;;8.10;99.90;;;;;;5061917;28;19931;-73
2022/01/17 12:27:13;;;;;;;;;;;8.10;99.90;;;;;;5078972;28;19946;-72
2022/01/17 12:29:41;;;;;;;;;;;8.00;99.90;;;;;;5093034;28;19915;-74
2022/01/17 12:32:17;;;;;;;;;;;7.90;99.90;;;;;;5084396;28;19909;-76
2022/01/17 12:34:45;;;;;;;;;;;7.80;99.90;;;;;;5098861;28;19935;-74
2022/01/17 12:37:32;;;;;;;;;;;7.70;99.90;;;;;;5098402;28;19936;-77
2022/01/17 12:42:47;;;;;;;;;;;8.00;99.90;;;;;;5186066;22;19915;-74
2022/01/17 12:50:26;;;;;;;;;;;8.30;99.90;;;;;;5581783;22;19934;-72
2022/01/17 12:52:53;;;;;;;;;;;8.40;99.90;;;;;;5099784;28;19914;-74
2022/01/17 12:55:21;;;;;;;;;;;8.40;99.90;;;;;;5108289;28;19920;-78
2022/01/17 12:57:47;;;;;;;;;;;8.40;99.90;;;;;;5089738;28;19987;-79
2022/01/17 13:00:18;;;;;;;;;;;8.50;99.90;;;;;;5081078;28;19924;-79
2022/01/17 13:02:46;;;;;;;;;;;8.70;99.90;;;;;;5092781;28;19996;-79
2022/01/17 13:05:13;;;;;;;;;;;8.80;99.90;;;;;;5084711;28;20462;-78
2022/01/17 13:07:43;;;;;;;;;;;8.80;99.90;;;;;;5097108;28;19931;-80
2022/01/17 13:10:11;;;;;;;;;;;8.90;99.90;;;;;;5083498;28;19931;-74
2022/01/17 13:12:39;;;;;;;;;;;9.00;99.90;;;;;;5080428;28;19932;-77
2022/01/17 13:15:06;;;;;;;;;;;9.20;99.90;;;;;;5083879;28;19924;-76
2022/01/17 13:17:35;;;;;;;;;;;9.10;99.90;;;;;;5091832;28;20015;-78
2022/01/17 13:20:01;;;;;;;;;;;9.00;99.90;;;;;;5085330;28;20012;-77
2022/01/17 13:22:37;;;;;;;;;;;8.90;99.90;;;;;;5097395;28;20341;-76
2022/01/17 13:25:05;;;;;;;;;;;9.00;99.90;;;;;;5090261;28;20402;-74
2022/01/17 13:27:33;;;;;;;;;;;8.80;99.90;;;;;;5081094;28;19925;-77
2022/01/17 13:30:00;;;;;;;;;;;8.80;99.90;;;;;;5081245;28;19995;-76
2022/01/17 13:32:32;;;;;;;;;;;8.70;99.90;;;;;;5078263;28;19924;-77
2022/01/17 13:35:05;;;;;;;;;;;8.80;99.90;;;;;;5081159;28;19928;-76
2022/01/17 13:37:32;;;;;;;;;;;8.70;99.90;;;;;;5090875;28;20019;-76
2022/01/17 13:39:59;;;;;;;;;;;8.70;99.90;;;;;;5091117;28;19946;-76
2022/01/17 13:42:27;;;;;;;;;;;8.80;99.90;;;;;;5085885;28;20397;-75
2022/01/17 13:44:54;;;;;;;;;;;8.70;99.90;;;;;;5075510;28;20296;-75
2022/01/17 13:47:21;;;;;;;;;;;8.80;99.90;;;;;;5085562;28;19928;-75
2022/01/17 13:49:49;;;;;;;;;;;8.90;99.90;;;;;;5084487;28;19989;-77
2022/01/17 13:52:17;;;;;;;;;;;9.10;99.90;;;;;;5088924;28;19977;-75
2022/01/17 13:54:46;;;;;;;;;;;9.20;99.90;;;;;;5084457;28;19931;-75
2022/01/17 13:57:14;;;;;;;;;;;9.40;99.90;;;;;;5075003;28;20011;-75
2022/01/17 13:59:53;;;;;;;;;;;9.40;99.90;;;;;;5079756;28;19975;-75
2022/01/17 14:02:19;;;;;;;;;;;9.50;99.90;;;;;;5090817;28;19950;-74
2022/01/17 14:04:46;;;;;;;;;;;9.50;99.90;;;;;;5081811;28;19939;-75
2022/01/17 14:07:22;;;;;;;;;;;9.50;99.90;;;;;;5076837;28;20031;-74
2022/01/17 14:09:49;;;;;;;;;;;9.50;99.90;;;;;;5081619;28;20285;-74
2022/01/17 14:12:16;;;;;;;;;;;9.60;99.90;;;;;;5084977;28;20010;-77
2022/01/17 14:14:49;;;;;;;;;;;9.60;99.90;;;;;;5080669;28;20405;-74
2022/01/17 14:17:23;;;;;;;;;;;9.50;99.90;;;;;;5077144;28;20015;-75
2022/01/17 14:19:50;;;;;;;;;;;9.50;99.90;;;;;;5086159;28;20414;-73
2022/01/17 14:22:17;;;;;;;;;;;9.30;99.90;;;;;;5086265;28;20015;-74
2022/01/17 14:24:44;;;;;;;;;;;9.20;99.90;;;;;;5077380;28;19925;-74
2022/01/17 14:27:14;;;;;;;;;;;9.10;99.90;;;;;;5082939;28;19932;-76
2022/01/17 14:29:42;;;;;;;;;;;9.00;99.90;;;;;;5087070;28;20391;-76
2022/01/17 14:32:11;;;;;;;;;;;8.90;99.90;;;;;;5085184;28;19925;-76
2022/01/17 14:34:39;;;;;;;;;;;8.80;99.90;;;;;;5077058;28;19948;-76
2022/01/17 14:37:07;;;;;;;;;;;8.80;99.90;;;;;;5079183;28;19946;-76
2022/01/17 14:39:35;;;;;;;;;;;8.70;99.90;;;;;;5074828;28;19932;-77
2022/01/17 14:42:07;;;;;;;;;;;8.70;99.90;;;;;;5085719;28;19931;-77
2022/01/17 14:44:34;;;;;;;;;;;8.60;99.90;;;;;;5080193;28;20014;-76
2022/01/17 14:47:01;;;;;;;;;;;8.50;99.90;;;;;;5084458;28;20035;-76
2022/01/17 14:49:30;;;;;;;;;;;8.50;99.90;;;;;;5081759;28;19928;-76
2022/01/17 14:52:00;;;;;;;;;;;8.50;99.90;;;;;;5079223;28;20391;-76
2022/01/17 14:54:31;;;;;;;;;;;8.40;99.90;;;;;;5085550;28;19955;-77
2022/01/17 14:59:47;;;;;;;;;;;8.30;99.90;;;;;;5083740;28;19947;-77
2022/01/17 15:02:21;;;;;;;;;;;8.30;99.90;;;;;;5089661;28;19928;-77
2022/01/17 15:04:49;;;;;;;;;;;8.30;99.90;;;;;;5089176;28;19924;-76
2022/01/17 15:07:16;;;;;;;;;;;8.20;99.90;;;;;;5083519;28;20018;-76
2022/01/17 15:09:46;;;;;;;;;;;8.20;99.90;;;;;;5081599;28;19928;-73
2022/01/17 15:12:13;;;;;;;;;;;8.20;99.90;;;;;;5074535;28;19928;-75
2022/01/17 15:14:43;;;;;;;;;;;8.20;99.90;;;;;;5080801;28;20011;-77
2022/01/17 15:17:11;;;;;;;;;;;8.20;99.90;;;;;;5080729;28;19932;-78
2022/01/17 15:19:38;;;;;;;;;;;8.10;99.90;;;;;;5078496;28;19987;-77
2022/01/17 15:22:06;;;;;;;;;;;8.10;99.90;;;;;;5078531;28;20326;-77
2022/01/17 15:24:33;;;;;;;;;;;8.00;99.90;;;;;;5086064;28;20385;-78
2022/01/17 15:27:00;;;;;;;;;;;8.00;99.90;;;;;;5090207;28;19924;-78
2022/01/17 15:29:32;;;;;;;;;;;8.00;99.90;;;;;;5086873;28;19935;-77
2022/01/17 15:31:59;;;;;;;;;;;8.00;99.90;;;;;;5082702;28;19924;-78
2022/01/17 15:34:26;;;;;;;;;;;8.00;99.90;;;;;;5085924;28;19992;-79
2022/01/17 15:36:53;;;;;;;;;;;8.00;99.90;;;;;;5083027;28;20003;-79
2022/01/17 15:39:21;;;;;;;;;;;7.90;99.90;;;;;;5083461;28;19925;-78
2022/01/17 15:41:48;;;;;;;;;;;7.80;99.90;;;;;;5088861;28;19982;-79
2022/01/17 15:44:18;;;;;;;;;;;7.80;99.90;;;;;;5082905;28;19964;-79
2022/01/17 15:46:44;;;;;;;;;;;7.70;99.90;;;;;;5078697;28;19932;-79
2022/01/17 15:49:12;;;;;;;;;;;7.60;99.90;;;;;;5081660;28;19977;-80
2022/01/17 15:51:39;;;;;;;;;;;7.50;99.90;;;;;;5087477;28;20446;-77
2022/01/17 15:54:06;;;;;;;;;;;7.50;99.90;;;;;;5088497;28;20004;-79
2022/01/17 15:56:35;;;;;;;;;;;7.50;99.90;;;;;;5087547;28;20034;-79
2022/01/17 15:59:02;;;;;;;;;;;7.40;99.90;;;;;;5088313;28;20061;-79
2022/01/17 16:01:29;;;;;;;;;;;7.30;99.90;;;;;;5085905;28;20491;-78
2022/01/17 16:03:56;;;;;;;;;;;7.20;99.90;;;;;;5085110;28;19967;-80
2022/01/17 16:06:25;;;;;;;;;;;7.10;99.90;;;;;;5079208;28;19928;-79
2022/01/17 16:08:54;;;;;;;;;;;7.10;99.90;;;;;;5082215;28;20438;-81
2022/01/17 16:11:25;;;;;;;;;;;7.10;99.90;;;;;;5080963;28;19963;-82
2022/01/17 16:13:53;;;;;;;;;;;7.10;99.90;;;;;;5084382;28;19939;-80
2022/01/17 16:16:20;;;;;;;;;;;7.10;99.90;;;;;;5076926;28;19951;-79
2022/01/17 16:18:49;;;;;;;;;;;7.10;99.90;;;;;;5083755;28;20011;-80
2022/01/17 16:21:16;;;;;;;;;;;7.00;99.90;;;;;;5078269;28;19963;-79
2022/01/17 16:23:43;;;;;;;;;;;7.00;99.90;;;;;;5086404;28;20436;-81
2022/01/17 16:26:10;;;;;;;;;;;7.10;99.90;;;;;;5081548;28;20006;-79
2022/01/17 16:28:39;;;;;;;;;;;7.10;99.90;;;;;;5083451;28;20036;-79
2022/01/17 16:31:08;;;;;;;;;;;7.20;99.90;;;;;;5079599;28;19959;-79
2022/01/17 16:33:35;;;;;;;;;;;7.30;99.90;;;;;;5079754;28;19923;-80
2022/01/17 16:36:01;;;;;;;;;;;7.30;99.90;;;;;;5075556;28;19930;-80
2022/01/17 16:38:28;;;;;;;;;;;7.30;99.90;;;;;;5079947;28;19925;-79
2022/01/17 16:40:55;;;;;;;;;;;7.40;99.90;;;;;;5081977;28;19928;-78
2022/01/17 16:43:22;;;;;;;;;;;7.40;99.90;;;;;;5098098;28;19924;-80
2022/01/17 16:45:51;;;;;;;;;;;7.40;99.90;;;;;;5099436;28;19924;-80
2022/01/17 16:48:20;;;;;;;;;;;7.30;99.90;;;;;;5086967;28;19934;-83
2022/01/17 16:50:47;;;;;;;;;;;7.30;99.90;;;;;;5092879;28;19913;-86
2022/01/17 16:53:14;;;;;;;;;;;7.20;99.90;;;;;;5086490;28;20430;-81
2022/01/17 16:55:41;;;;;;;;;;;7.10;99.90;;;;;;5083957;28;20387;-81
2022/01/17 16:58:08;;;;;;;;;;;7.00;99.90;;;;;;5083975;28;20241;-81
2022/01/17 17:00:35;;;;;;;;;;;6.90;99.90;;;;;;5097100;28;19932;-82
2022/01/17 17:03:02;;;;;;;;;;;6.90;99.90;;;;;;5088318;28;19924;-80
2022/01/17 17:05:30;;;;;;;;;;;6.80;99.90;;;;;;5100181;28;19986;-79
2022/01/17 17:07:57;;;;;;;;;;;6.80;99.90;;;;;;5102906;28;19928;-79
2022/01/17 17:10:24;;;;;;;;;;;6.70;99.90;;;;;;5106078;28;20435;-79
2022/01/17 17:12:51;;;;;;;;;;;6.60;99.90;;;;;;5098891;28;20022;-80
2022/01/17 17:15:18;;;;;;;;;;;6.50;99.90;;;;;;5093339;28;19929;-75
2022/01/17 17:17:45;;;;;;;;;;;6.40;99.90;;;;;;5082525;28;20014;-75
2022/01/17 17:20:15;;;;;;;;;;;6.30;99.90;;;;;;5088068;28;20441;-75
2022/01/17 17:22:43;;;;;;;;;;;6.30;99.90;;;;;;5092817;28;19999;-75
2022/01/17 17:25:10;;;;;;;;;;;6.20;99.90;;;;;;5078178;28;20070;-78
2022/01/17 17:27:39;;;;;;;;;;;6.30;99.90;;;;;;5083211;28;19933;-76
2022/01/17 17:30:07;;;;;;;;;;;6.10;99.90;;;;;;5077635;28;19931;-75
2022/01/17 17:32:34;;;;;;;;;;;6.10;99.90;;;;;;5087877;28;20373;-75
2022/01/17 17:35:00;;;;;;;;;;;6.10;99.90;;;;;;5082686;28;19924;-75
2022/01/17 17:37:27;;;;;;;;;;;6.00;99.90;;;;;;5093697;28;19928;-77
2022/01/17 17:39:55;;;;;;;;;;;6.00;99.90;;;;;;5094035;28;19946;-75
2022/01/17 17:42:22;;;;;;;;;;;6.00;99.90;;;;;;5076577;28;19982;-75
2022/01/17 17:44:49;;;;;;;;;;;5.90;99.90;;;;;;5082524;28;19924;-75
2022/01/17 17:47:16;;;;;;;;;;;5.90;99.90;;;;;;5080526;28;19939;-74
2022/01/17 17:49:43;;;;;;;;;;;5.90;99.90;;;;;;5072199;28;19935;-75
2022/01/17 17:52:10;;;;;;;;;;;5.80;99.90;;;;;;5073532;28;19932;-75